Time;durP1;ratioP1;P1;durP2;ratioP2;P2;SDS_P1;SDS_P2;PMS_P1;PMS_P2;Temp;Humidity;BMP_temperature;BMP_pressure;BME280_temperature;BME280_humidity;BME280_pressure;Samples;Min_cycle;Max_cycle;Signal;HPM_P1;HPM_P2
2022/01/15 00:01:44;0.00;0.00;0.62;0.00;0.00;0.62;1.50;1.03;;;21.50;28.70;;;;;;2237635;62;20452;-63
2022/01/15 00:04:28;0.00;0.00;0.62;0.00;0.00;0.62;1.47;1.10;;;21.50;28.70;;;;;;2232493;62;20455;-62
2022/01/15 00:07:13;0.00;0.00;0.62;0.00;0.00;0.62;1.90;1.07;;;21.50;28.70;;;;;;2247352;58;20416;-63
2022/01/15 00:09:58;0.00;0.00;0.62;0.00;0.00;0.62;1.63;1.00;;;21.50;28.70;;;;;;2231832;62;20719;-60
2022/01/15 00:12:44;0.00;0.00;0.62;0.00;0.00;0.62;1.80;1.30;;;21.50;28.70;;;;;;2244580;62;20412;-63
2022/01/15 00:15:37;0.00;0.00;0.62;0.00;0.00;0.62;1.50;1.00;;;21.50;28.70;;;;;;2232780;62;20477;-62
2022/01/15 00:18:39;0.00;0.00;0.62;0.00;0.00;0.62;1.53;1.00;;;21.50;28.80;;;;;;2232627;62;20384;-62
2022/01/15 00:21:24;0.00;0.00;0.62;0.00;0.00;0.62;1.60;1.00;;;21.50;28.80;;;;;;2235306;62;20411;-62
2022/01/15 00:24:09;0.00;0.00;0.62;0.00;0.00;0.62;1.50;0.97;;;21.50;28.80;;;;;;2240193;62;20651;-62
2022/01/15 00:26:53;0.00;0.00;0.62;0.00;0.00;0.62;1.30;0.80;;;21.50;28.70;;;;;;2240076;62;20768;-63
2022/01/15 00:29:41;0.00;0.00;0.62;0.00;0.00;0.62;1.57;1.03;;;21.50;28.80;;;;;;2240705;62;20649;-62
2022/01/15 00:32:26;0.00;0.00;0.62;0.00;0.00;0.62;1.70;1.20;;;21.50;28.80;;;;;;2232971;62;20435;-61
2022/01/15 00:35:15;0.00;0.00;0.62;0.00;0.00;0.62;1.33;1.00;;;21.50;28.80;;;;;;2232030;62;20433;-64
2022/01/15 00:38:01;0.00;0.00;0.62;0.00;0.00;0.62;1.50;1.00;;;21.60;28.80;;;;;;2238576;62;20364;-61
2022/01/15 00:40:45;0.00;0.00;0.62;0.00;0.00;0.62;1.50;1.07;;;21.60;28.80;;;;;;2238979;62;20480;-64
2022/01/15 00:43:31;0.00;0.00;0.62;0.00;0.00;0.62;1.70;1.03;;;21.60;28.80;;;;;;2231984;62;20422;-63
2022/01/15 00:46:16;0.00;0.00;0.62;0.00;0.00;0.62;1.60;0.80;;;21.60;28.90;;;;;;2233170;58;20384;-62
2022/01/15 00:49:01;0.00;0.00;0.62;0.00;0.00;0.62;1.50;1.03;;;21.60;28.80;;;;;;2243830;62;20376;-64
2022/01/15 00:51:47;0.00;0.00;0.62;0.00;0.00;0.62;1.37;0.80;;;21.60;28.80;;;;;;2265424;62;20407;-65
2022/01/15 00:54:32;0.00;0.00;0.62;0.00;0.00;0.62;1.73;0.90;;;21.60;28.80;;;;;;2258683;59;20384;-64
2022/01/15 00:57:17;0.00;0.00;0.62;0.00;0.00;0.62;1.43;1.00;;;21.60;28.80;;;;;;2233297;62;20420;-62
2022/01/15 01:00:04;0.00;0.00;0.62;0.00;0.00;0.62;1.60;1.07;;;21.60;28.80;;;;;;2267974;54;20403;-60
2022/01/15 01:02:49;0.00;0.00;0.62;0.00;0.00;0.62;1.63;1.20;;;21.60;28.80;;;;;;2233157;62;20591;-62
2022/01/15 01:05:34;0.00;0.00;0.62;0.00;0.00;0.62;1.90;1.27;;;21.60;28.80;;;;;;2231919;62;20380;-60
2022/01/15 01:08:21;0.00;0.00;0.62;0.00;0.00;0.62;1.63;1.20;;;21.60;28.80;;;;;;2232208;62;20441;-64
2022/01/15 01:11:12;0.00;0.00;0.62;0.00;0.00;0.62;1.60;1.30;;;21.60;28.80;;;;;;2233763;59;20767;-63
2022/01/15 01:20:08;0.00;0.00;0.62;0.00;0.00;0.62;1.80;1.40;;;21.60;28.70;;;;;;2231405;62;20396;-63
2022/01/15 01:22:57;0.00;0.00;0.62;0.00;0.00;0.62;1.90;1.27;;;21.60;28.70;;;;;;2231135;62;20411;-62
2022/01/15 01:25:47;0.00;0.00;0.62;0.00;0.00;0.62;1.80;1.33;;;21.70;28.80;;;;;;2234410;62;20376;-63
2022/01/15 01:28:36;0.00;0.00;0.62;0.00;0.00;0.62;1.63;1.10;;;21.70;28.80;;;;;;2243422;59;20428;-60
2022/01/15 01:31:30;0.00;0.00;0.62;0.00;0.00;0.62;1.60;1.20;;;21.70;28.80;;;;;;2243242;62;20621;-62
2022/01/15 01:34:14;0.00;0.00;0.62;0.00;0.00;0.62;1.73;1.13;;;21.70;28.80;;;;;;2251834;62;20405;-63
2022/01/15 01:37:07;0.00;0.00;0.62;0.00;0.00;0.62;1.80;1.10;;;21.70;28.80;;;;;;2237133;62;20385;-62
2022/01/15 01:40:06;0.00;0.00;0.62;0.00;0.00;0.62;1.60;1.00;;;21.70;28.80;;;;;;2233272;62;20405;-62
2022/01/15 01:43:08;0.00;0.00;0.62;0.00;0.00;0.62;1.70;1.00;;;21.70;28.80;;;;;;2232082;62;20676;-63
2022/01/15 01:49:14;0.00;0.00;0.62;0.00;0.00;0.62;2.47;1.30;;;21.70;28.80;;;;;;2229663;59;20391;-63
2022/01/15 01:51:58;0.00;0.00;0.62;0.00;0.00;0.62;1.57;1.10;;;21.70;28.70;;;;;;2230652;62;21127;-62
2022/01/15 01:54:43;0.00;0.00;0.62;0.00;0.00;0.62;2.00;1.60;;;21.70;28.70;;;;;;2234098;62;20376;-63
2022/01/15 01:57:27;0.00;0.00;0.62;0.00;0.00;0.62;1.97;1.43;;;21.70;28.70;;;;;;2231903;62;20429;-64
2022/01/15 02:00:19;0.00;0.00;0.62;0.00;0.00;0.62;1.40;0.80;;;21.70;28.70;;;;;;2233548;62;20417;-64
2022/01/15 02:03:07;0.00;0.00;0.62;0.00;0.00;0.62;1.60;1.00;;;21.70;28.70;;;;;;2242519;62;20376;-63
2022/01/15 02:05:53;0.00;0.00;0.62;0.00;0.00;0.62;1.80;1.20;;;21.70;28.70;;;;;;2241334;62;20411;-65
2022/01/15 02:08:39;0.00;0.00;0.62;0.00;0.00;0.62;2.03;1.63;;;21.80;28.80;;;;;;2235445;62;20416;-62
2022/01/15 02:11:25;0.00;0.00;0.62;0.00;0.00;0.62;2.30;1.87;;;21.80;28.80;;;;;;2232317;62;20396;-62
2022/01/15 02:14:23;0.00;0.00;0.62;0.00;0.00;0.62;2.37;1.87;;;21.80;28.80;;;;;;2232553;62;20377;-60
2022/01/15 02:17:12;0.00;0.00;0.62;0.00;0.00;0.62;2.30;1.70;;;21.80;28.80;;;;;;2232355;62;21052;-63
2022/01/15 02:23:41;0.00;0.00;0.62;0.00;0.00;0.62;2.87;2.27;;;21.80;28.80;;;;;;2236375;62;20392;-62
2022/01/15 02:26:06;0.00;0.00;0.62;0.00;0.00;0.62;2.93;2.63;;;21.70;28.70;;;;;;2232438;62;20424;-62
2022/01/15 02:28:55;0.00;0.00;0.62;0.00;0.00;0.62;3.47;2.90;;;21.80;28.70;;;;;;2239902;62;20437;-61
2022/01/15 02:31:40;0.00;0.00;0.62;0.00;0.00;0.62;3.37;2.90;;;21.80;29.20;;;;;;2232429;62;20450;-61
2022/01/15 02:34:25;0.00;0.00;0.62;0.00;0.00;0.62;4.73;3.20;;;21.80;28.70;;;;;;2231532;62;20769;-62
2022/01/15 02:37:12;0.00;0.00;0.62;0.00;0.00;0.62;4.73;3.60;;;21.70;28.50;;;;;;2244661;62;20393;-61
2022/01/15 02:39:58;0.00;0.00;0.62;0.00;0.00;0.62;5.57;4.00;;;21.70;28.50;;;;;;2233311;62;20384;-63
2022/01/15 02:42:43;0.00;0.00;0.62;0.00;0.00;0.62;4.30;3.90;;;21.70;28.50;;;;;;2231876;62;20373;-61
2022/01/15 02:45:29;0.00;0.00;0.62;0.00;0.00;0.62;5.07;4.50;;;21.70;28.50;;;;;;2242109;62;20387;-62
2022/01/15 02:48:18;0.00;0.00;0.62;0.00;0.00;0.62;4.40;3.70;;;21.70;28.50;;;;;;2230244;62;20372;-63
2022/01/15 02:51:03;0.00;0.00;0.62;0.00;0.00;0.62;6.63;5.07;;;21.70;28.50;;;;;;2231281;62;20389;-62
2022/01/15 02:53:55;0.00;0.00;0.62;0.00;0.00;0.62;6.23;5.00;;;21.70;28.40;;;;;;2232602;62;20416;-62
2022/01/15 02:56:42;0.00;0.00;0.62;0.00;0.00;0.62;5.17;4.67;;;21.60;28.40;;;;;;2231180;62;20372;-61
2022/01/15 02:59:27;0.00;0.00;0.62;0.00;0.00;0.62;5.30;4.70;;;21.60;28.40;;;;;;2235699;62;20408;-62
2022/01/15 03:02:12;0.00;0.00;0.62;0.00;0.00;0.62;4.73;4.27;;;21.60;28.40;;;;;;2235774;62;20403;-63
2022/01/15 03:04:57;0.00;0.00;0.62;0.00;0.00;0.62;4.80;4.33;;;21.60;28.40;;;;;;2239551;62;20618;-63
2022/01/15 03:07:43;0.00;0.00;0.62;0.00;0.00;0.62;4.97;4.20;;;21.60;28.40;;;;;;2261075;62;20639;-61
2022/01/15 03:10:29;0.00;0.00;0.62;0.00;0.00;0.62;5.50;4.90;;;21.60;28.40;;;;;;2251484;59;20371;-61
2022/01/15 03:13:15;0.00;0.00;0.62;0.00;0.00;0.62;6.10;5.50;;;21.60;28.40;;;;;;2229997;62;20480;-62
2022/01/15 03:16:01;0.00;0.00;0.62;0.00;0.00;0.62;5.47;4.87;;;21.60;28.40;;;;;;2239918;62;20368;-62
2022/01/15 03:18:46;0.00;0.00;0.62;0.00;0.00;0.62;8.63;5.77;;;21.60;28.40;;;;;;2244388;62;20411;-62
2022/01/15 03:21:31;0.00;0.00;0.62;0.00;0.00;0.62;6.57;4.80;;;21.60;28.30;;;;;;2233199;62;20421;-62
2022/01/15 03:24:17;0.00;0.00;0.62;0.00;0.00;0.62;6.00;5.40;;;21.50;28.30;;;;;;2257444;58;20444;-62
2022/01/15 03:27:03;0.00;0.00;0.62;0.00;0.00;0.62;6.30;5.60;;;21.50;28.30;;;;;;2232014;62;20416;-62
2022/01/15 03:29:48;0.00;0.00;0.62;0.00;0.00;0.62;6.37;5.23;;;21.50;28.30;;;;;;2243716;62;20817;-63
2022/01/15 03:32:33;0.00;0.00;0.62;0.00;0.00;0.62;5.77;5.20;;;21.50;28.30;;;;;;2233672;62;20396;-60
2022/01/15 03:35:18;0.00;0.00;0.62;0.00;0.00;0.62;5.43;4.87;;;21.50;28.30;;;;;;2233398;62;20380;-61
2022/01/15 03:38:04;0.00;0.00;0.62;0.00;0.00;0.62;6.43;5.73;;;21.50;28.30;;;;;;2237422;62;20376;-62
2022/01/15 03:40:51;0.00;0.00;0.62;0.00;0.00;0.62;5.53;4.93;;;21.50;28.30;;;;;;2236943;62;20467;-63
2022/01/15 03:43:38;0.00;0.00;0.62;0.00;0.00;0.62;6.60;5.33;;;21.50;28.30;;;;;;2231486;62;20408;-61
2022/01/15 03:46:22;0.00;0.00;0.62;0.00;0.00;0.62;5.80;5.20;;;21.40;28.30;;;;;;2240199;59;20494;-63
2022/01/15 03:49:07;0.00;0.00;0.62;0.00;0.00;0.62;6.27;5.33;;;21.40;28.20;;;;;;2233276;62;20521;-62
2022/01/15 03:51:52;0.00;0.00;0.62;0.00;0.00;0.62;5.80;4.77;;;21.40;28.20;;;;;;2235594;62;20400;-62
2022/01/15 03:54:37;0.00;0.00;0.62;0.00;0.00;0.62;6.23;5.40;;;21.40;28.30;;;;;;2257271;62;20400;-61
2022/01/15 03:57:22;0.00;0.00;0.62;0.00;0.00;0.62;5.87;5.07;;;21.40;28.30;;;;;;2237408;62;20376;-62
2022/01/15 04:00:12;0.00;0.00;0.62;0.00;0.00;0.62;7.13;5.50;;;21.40;28.30;;;;;;2246011;62;20396;-63
2022/01/15 04:02:58;0.00;0.00;0.62;0.00;0.00;0.62;6.00;5.30;;;21.40;28.30;;;;;;2235787;62;21173;-63
2022/01/15 04:05:42;0.00;0.00;0.62;0.00;0.00;0.62;6.73;5.30;;;21.40;28.30;;;;;;2241703;62;20395;-64
2022/01/15 04:08:27;0.00;0.00;0.62;0.00;0.00;0.62;5.90;4.80;;;21.40;28.30;;;;;;2244406;62;20779;-62
2022/01/15 04:11:12;0.00;0.00;0.62;0.00;0.00;0.62;5.90;5.30;;;21.30;28.20;;;;;;2253472;59;20384;-64
2022/01/15 04:13:57;0.00;0.00;0.62;0.00;0.00;0.62;6.27;4.93;;;21.30;28.20;;;;;;2235876;58;20697;-64
2022/01/15 04:16:43;0.00;0.00;0.62;0.00;0.00;0.62;7.13;5.77;;;21.30;28.20;;;;;;2245385;62;20816;-63
2022/01/15 04:19:29;0.00;0.00;0.62;0.00;0.00;0.62;6.40;4.90;;;21.30;28.20;;;;;;2232391;58;20376;-62
2022/01/15 04:22:14;0.00;0.00;0.62;0.00;0.00;0.62;7.00;6.30;;;21.40;28.30;;;;;;2233118;62;20432;-64
2022/01/15 04:24:58;0.00;0.00;0.62;0.00;0.00;0.62;6.97;5.63;;;21.30;28.20;;;;;;2233296;62;20389;-62
2022/01/15 04:27:44;0.00;0.00;0.62;0.00;0.00;0.62;5.70;5.00;;;21.30;28.20;;;;;;2234428;62;20376;-63
2022/01/15 04:30:29;0.00;0.00;0.62;0.00;0.00;0.62;6.50;5.30;;;21.30;28.20;;;;;;2234547;62;20536;-62
2022/01/15 04:33:15;0.00;0.00;0.62;0.00;0.00;0.62;6.60;5.20;;;21.30;28.20;;;;;;2234808;62;20388;-63
2022/01/15 04:36:00;0.00;0.00;0.62;0.00;0.00;0.62;5.80;5.23;;;21.30;28.20;;;;;;2234134;62;20491;-64
2022/01/15 04:38:45;0.00;0.00;0.62;0.00;0.00;0.62;6.23;5.30;;;21.30;28.20;;;;;;2240665;62;20364;-63
2022/01/15 04:41:30;0.00;0.00;0.62;0.00;0.00;0.62;6.13;5.07;;;21.30;28.20;;;;;;2237845;62;20767;-64
2022/01/15 04:44:15;0.00;0.00;0.62;0.00;0.00;0.62;5.97;4.93;;;21.30;28.20;;;;;;2240697;62;20388;-64
2022/01/15 04:46:59;0.00;0.00;0.62;0.00;0.00;0.62;6.47;5.80;;;21.20;28.20;;;;;;2241821;62;20720;-63
2022/01/15 04:49:45;0.00;0.00;0.62;0.00;0.00;0.62;6.10;5.50;;;21.30;28.20;;;;;;2234281;62;20416;-62
2022/01/15 04:52:33;0.00;0.00;0.62;0.00;0.00;0.62;5.47;4.90;;;21.20;28.20;;;;;;2261108;59;20509;-64
2022/01/15 04:55:18;0.00;0.00;0.62;0.00;0.00;0.62;6.30;4.93;;;21.20;28.20;;;;;;2244418;62;20408;-62
2022/01/15 04:58:04;0.00;0.00;0.62;0.00;0.00;0.62;6.90;5.50;;;21.20;28.20;;;;;;2259160;59;20372;-61
2022/01/15 05:00:48;0.00;0.00;0.62;0.00;0.00;0.62;5.93;5.33;;;21.20;28.20;;;;;;2231684;62;20662;-62
2022/01/15 05:03:33;0.00;0.00;0.62;0.00;0.00;0.62;6.40;5.53;;;21.20;28.20;;;;;;2247197;62;20451;-64
2022/01/15 05:06:20;0.00;0.00;0.62;0.00;0.00;0.62;6.00;4.97;;;21.20;28.20;;;;;;2231451;62;20440;-62
2022/01/15 05:09:05;0.00;0.00;0.62;0.00;0.00;0.62;6.50;5.17;;;21.20;28.20;;;;;;2231446;59;20384;-62
2022/01/15 05:12:09;0.00;0.00;0.62;0.00;0.00;0.62;6.10;5.10;;;21.20;28.20;;;;;;2230993;62;20409;-61
2022/01/15 05:14:53;0.00;0.00;0.62;0.00;0.00;0.62;6.37;5.57;;;21.20;28.20;;;;;;2232450;58;20420;-63
2022/01/15 05:17:38;0.00;0.00;0.62;0.00;0.00;0.62;6.23;5.53;;;21.20;28.20;;;;;;2231458;62;20373;-62
2022/01/15 05:20:23;0.00;0.00;0.62;0.00;0.00;0.62;7.40;6.23;;;21.20;28.20;;;;;;2246944;62;20435;-61
2022/01/15 05:23:09;0.00;0.00;0.62;0.00;0.00;0.62;5.93;5.33;;;21.10;28.20;;;;;;2236486;62;20428;-64
2022/01/15 05:25:53;0.00;0.00;0.62;0.00;0.00;0.62;6.77;5.60;;;21.10;28.20;;;;;;2246006;62;20397;-62
2022/01/15 05:28:38;0.00;0.00;0.62;0.00;0.00;0.62;6.07;5.27;;;21.10;28.20;;;;;;2238471;62;20424;-64
2022/01/15 05:31:23;0.00;0.00;0.62;0.00;0.00;0.62;5.10;4.60;;;21.10;28.20;;;;;;2253164;58;20397;-62
2022/01/15 05:34:08;0.00;0.00;0.62;0.00;0.00;0.62;5.27;4.77;;;21.10;28.20;;;;;;2231640;62;20368;-64
2022/01/15 05:36:53;0.00;0.00;0.62;0.00;0.00;0.62;6.93;5.67;;;21.10;28.40;;;;;;2243316;62;20733;-63
2022/01/15 05:39:39;0.00;0.00;0.62;0.00;0.00;0.62;8.43;5.10;;;21.10;28.20;;;;;;2234489;62;20375;-63
2022/01/15 05:42:23;0.00;0.00;0.62;0.00;0.00;0.62;6.03;5.37;;;21.10;28.20;;;;;;2232855;62;20761;-63
2022/01/15 05:45:10;0.00;0.00;0.62;0.00;0.00;0.62;6.10;5.00;;;21.10;28.20;;;;;;2233055;62;20778;-63
2022/01/15 05:47:55;0.00;0.00;0.62;0.00;0.00;0.62;6.83;5.43;;;21.10;28.20;;;;;;2245667;62;20465;-61
2022/01/15 05:50:40;0.00;0.00;0.62;0.00;0.00;0.62;6.60;5.10;;;21.10;28.20;;;;;;2231444;62;20420;-62
2022/01/15 05:53:24;0.00;0.00;0.62;0.00;0.00;0.62;6.50;5.57;;;21.10;28.20;;;;;;2236006;62;20380;-62
2022/01/15 05:56:11;0.00;0.00;0.62;0.00;0.00;0.62;5.50;4.97;;;21.10;28.20;;;;;;2234064;62;20417;-63
2022/01/15 05:58:56;0.00;0.00;0.62;0.00;0.00;0.62;5.90;4.97;;;21.00;28.10;;;;;;2239078;59;20441;-61
2022/01/15 06:01:41;0.00;0.00;0.62;0.00;0.00;0.62;8.53;7.30;;;21.10;28.20;;;;;;2235217;62;20396;-63
2022/01/15 06:04:25;0.00;0.00;0.62;0.00;0.00;0.62;6.93;6.20;;;21.00;28.10;;;;;;2230725;62;20394;-62
2022/01/15 06:07:10;0.00;0.00;0.62;0.00;0.00;0.62;7.60;6.00;;;21.00;28.20;;;;;;2240155;62;20381;-62
2022/01/15 06:09:54;0.00;0.00;0.62;0.00;0.00;0.62;6.60;5.60;;;21.00;28.20;;;;;;2233676;62;20392;-62
2022/01/15 06:12:44;0.00;0.00;0.62;0.00;0.00;0.62;6.20;5.57;;;21.00;28.20;;;;;;2260920;59;20604;-61
2022/01/15 06:15:29;0.00;0.00;0.62;0.00;0.00;0.62;6.33;5.70;;;21.00;28.20;;;;;;2231157;62;20429;-62
2022/01/15 06:18:13;0.00;0.00;0.62;0.00;0.00;0.62;7.13;5.57;;;21.00;28.20;;;;;;2241728;62;20445;-62
2022/01/15 06:20:58;0.00;0.00;0.62;0.00;0.00;0.62;6.83;6.03;;;21.00;28.20;;;;;;2258447;62;20404;-63
2022/01/15 06:23:43;0.00;0.00;0.62;0.00;0.00;0.62;6.77;5.73;;;21.00;28.20;;;;;;2233099;62;20388;-62
2022/01/15 06:26:28;0.00;0.00;0.62;0.00;0.00;0.62;8.07;6.50;;;21.00;28.20;;;;;;2232566;58;20380;-61
2022/01/15 06:29:14;0.00;0.00;0.62;0.00;0.00;0.62;7.97;5.97;;;21.00;28.20;;;;;;2232109;62;20412;-62
2022/01/15 06:31:58;0.00;0.00;0.62;0.00;0.00;0.62;7.30;5.90;;;21.00;28.20;;;;;;2235763;59;20513;-63
2022/01/15 06:34:43;0.00;0.00;0.62;0.00;0.00;0.62;8.90;6.30;;;21.00;28.20;;;;;;2235708;62;20373;-62
2022/01/15 06:37:28;0.00;0.00;0.62;0.00;0.00;0.62;6.90;5.80;;;21.00;28.20;;;;;;2237800;62;20778;-63
2022/01/15 06:40:13;0.00;0.00;0.62;0.00;0.00;0.62;9.17;6.47;;;20.90;28.10;;;;;;2242966;62;20487;-62
2022/01/15 06:43:00;0.00;0.00;0.62;0.00;0.00;0.62;6.93;5.70;;;20.90;28.10;;;;;;2253172;59;20488;-63
2022/01/15 06:45:45;0.00;0.00;0.62;0.00;0.00;0.62;8.33;6.70;;;20.90;28.10;;;;;;2232064;58;20417;-63
2022/01/15 06:48:30;0.00;0.00;0.62;0.00;0.00;0.62;8.23;5.90;;;20.90;28.20;;;;;;2242335;62;20387;-61
2022/01/15 06:51:14;0.00;0.00;0.62;0.00;0.00;0.62;6.70;5.60;;;20.90;28.20;;;;;;2243963;62;20523;-63
2022/01/15 06:53:59;0.00;0.00;0.62;0.00;0.00;0.62;7.10;6.40;;;20.90;28.20;;;;;;2231535;62;20376;-62
2022/01/15 06:56:43;0.00;0.00;0.62;0.00;0.00;0.62;7.20;6.00;;;20.90;28.20;;;;;;2231701;62;20575;-62
2022/01/15 06:59:28;0.00;0.00;0.62;0.00;0.00;0.62;6.83;6.07;;;20.90;28.20;;;;;;2235967;62;20639;-63
2022/01/15 07:02:14;0.00;0.00;0.62;0.00;0.00;0.62;7.03;5.90;;;20.90;28.20;;;;;;2234940;62;20553;-60
2022/01/15 07:04:58;0.00;0.00;0.62;0.00;0.00;0.62;6.83;5.40;;;20.90;28.20;;;;;;2240141;58;20770;-62
2022/01/15 07:07:45;0.00;0.00;0.62;0.00;0.00;0.62;7.90;6.17;;;20.90;28.20;;;;;;2256618;62;20450;-62
2022/01/15 07:10:30;0.00;0.00;0.62;0.00;0.00;0.62;7.80;6.60;;;20.80;28.20;;;;;;2235875;62;20379;-61
2022/01/15 07:13:15;0.00;0.00;0.62;0.00;0.00;0.62;8.13;5.20;;;20.80;28.20;;;;;;2239098;62;20481;-63
2022/01/15 07:16:00;0.00;0.00;0.62;0.00;0.00;0.62;8.67;5.60;;;20.80;28.20;;;;;;2233743;62;20375;-62
2022/01/15 07:18:46;0.00;0.00;0.62;0.00;0.00;0.62;6.83;5.80;;;20.80;28.20;;;;;;2254421;59;20762;-62
2022/01/15 07:21:30;0.00;0.00;0.62;0.00;0.00;0.62;7.73;6.10;;;20.80;28.20;;;;;;2236258;59;20753;-63
2022/01/15 07:24:16;0.00;0.00;0.62;0.00;0.00;0.62;6.10;5.23;;;20.80;28.20;;;;;;2245909;62;20384;-61
2022/01/15 07:27:01;0.00;0.00;0.62;0.00;0.00;0.62;8.10;5.73;;;20.80;28.20;;;;;;2232995;62;20400;-62
2022/01/15 07:29:46;0.00;0.00;0.62;0.00;0.00;0.62;7.90;6.10;;;20.80;28.20;;;;;;2233757;62;20390;-63
2022/01/15 07:32:30;0.00;0.00;0.62;0.00;0.00;0.62;6.57;5.27;;;20.80;28.20;;;;;;2235344;62;20771;-62
2022/01/15 07:35:17;0.00;0.00;0.62;0.00;0.00;0.62;6.90;6.07;;;20.80;28.20;;;;;;2235065;62;20368;-63
2022/01/15 07:38:01;0.00;0.00;0.62;0.00;0.00;0.62;7.87;6.13;;;20.80;28.20;;;;;;2236655;59;20461;-63
2022/01/15 07:40:46;0.00;0.00;0.62;0.00;0.00;0.62;8.33;6.40;;;20.80;28.20;;;;;;2239986;62;20477;-63
2022/01/15 07:43:31;0.00;0.00;0.62;0.00;0.00;0.62;6.70;5.30;;;20.80;28.20;;;;;;2238736;62;20422;-63
2022/01/15 07:46:16;0.00;0.00;0.62;0.00;0.00;0.62;7.90;6.40;;;20.80;28.20;;;;;;2237307;58;20757;-62
2022/01/15 07:49:00;0.00;0.00;0.62;0.00;0.00;0.62;6.60;4.80;;;20.80;28.30;;;;;;2260951;59;20380;-63
2022/01/15 07:51:46;0.00;0.00;0.62;0.00;0.00;0.62;7.13;5.80;;;20.80;28.30;;;;;;2244944;62;20416;-62
2022/01/15 07:54:30;0.00;0.00;0.62;0.00;0.00;0.62;7.80;6.40;;;20.80;28.30;;;;;;2244332;59;20553;-61
2022/01/15 07:57:15;0.00;0.00;0.62;0.00;0.00;0.62;7.67;6.50;;;20.80;28.30;;;;;;2233729;62;20417;-61
2022/01/15 08:00:00;0.00;0.00;0.62;0.00;0.00;0.62;7.57;6.10;;;20.80;28.30;;;;;;2235381;62;20468;-64
2022/01/15 08:02:44;0.00;0.00;0.62;0.00;0.00;0.62;8.30;6.33;;;20.80;28.30;;;;;;2233371;62;20376;-63
2022/01/15 08:05:30;0.00;0.00;0.62;0.00;0.00;0.62;7.90;5.80;;;20.80;28.30;;;;;;2239259;62;20498;-62
2022/01/15 08:08:16;0.00;0.00;0.62;0.00;0.00;0.62;9.50;6.77;;;20.80;28.30;;;;;;2239014;62;20895;-60
2022/01/15 08:11:02;0.00;0.00;0.62;0.00;0.00;0.62;6.43;5.23;;;20.80;28.30;;;;;;2230920;62;20420;-63
2022/01/15 08:13:47;0.00;0.00;0.62;0.00;0.00;0.62;8.00;5.70;;;20.80;28.30;;;;;;2235303;62;20650;-61
2022/01/15 08:16:32;0.00;0.00;0.62;0.00;0.00;0.62;7.53;5.90;;;20.80;28.30;;;;;;2237725;62;20391;-60
2022/01/15 08:19:16;0.00;0.00;0.62;0.00;0.00;0.62;8.90;5.90;;;20.80;28.30;;;;;;2240076;62;20736;-62
2022/01/15 08:22:01;0.00;0.00;0.62;0.00;0.00;0.62;7.67;5.53;;;20.80;28.30;;;;;;2233311;62;20501;-62
2022/01/15 08:24:50;0.00;0.00;0.62;0.00;0.00;0.62;7.63;5.53;;;20.80;28.30;;;;;;2259160;59;20379;-63
2022/01/15 08:27:35;0.00;0.00;0.62;0.00;0.00;0.62;7.10;5.43;;;20.80;28.30;;;;;;2234749;59;20377;-63
2022/01/15 08:30:21;0.00;0.00;0.62;0.00;0.00;0.62;9.20;6.77;;;20.80;28.40;;;;;;2243615;62;20360;-63
2022/01/15 08:33:06;0.00;0.00;0.62;0.00;0.00;0.62;6.63;5.23;;;20.80;28.30;;;;;;2234661;62;20385;-64
2022/01/15 08:35:50;0.00;0.00;0.62;0.00;0.00;0.62;7.20;6.10;;;20.80;28.30;;;;;;2231920;62;20773;-62
2022/01/15 08:38:35;0.00;0.00;0.62;0.00;0.00;0.62;6.90;5.13;;;20.80;28.30;;;;;;2248667;62;20372;-62
2022/01/15 08:41:21;0.00;0.00;0.62;0.00;0.00;0.62;7.83;5.70;;;20.80;28.30;;;;;;2233739;62;20420;-62
2022/01/15 08:44:06;0.00;0.00;0.62;0.00;0.00;0.62;6.23;5.30;;;20.80;28.40;;;;;;2236777;59;20809;-63
2022/01/15 08:46:51;0.00;0.00;0.62;0.00;0.00;0.62;7.00;5.70;;;20.80;28.30;;;;;;2235423;62;20368;-63
2022/01/15 08:49:38;0.00;0.00;0.62;0.00;0.00;0.62;8.73;6.43;;;20.80;28.40;;;;;;2240932;62;20464;-63
2022/01/15 08:52:23;0.00;0.00;0.62;0.00;0.00;0.62;7.07;5.13;;;20.80;28.40;;;;;;2239655;62;20384;-63
2022/01/15 08:55:09;0.00;0.00;0.62;0.00;0.00;0.62;5.90;5.00;;;20.80;28.40;;;;;;2241142;62;20597;-64
2022/01/15 08:57:55;0.00;0.00;0.62;0.00;0.00;0.62;7.47;5.73;;;20.80;28.40;;;;;;2237975;62;20368;-63
2022/01/15 09:00:39;0.00;0.00;0.62;0.00;0.00;0.62;6.17;4.70;;;20.80;28.40;;;;;;2237592;62;20403;-63
2022/01/15 09:03:25;0.00;0.00;0.62;0.00;0.00;0.62;7.00;5.60;;;20.80;28.40;;;;;;2242781;62;20412;-62
2022/01/15 09:06:10;0.00;0.00;0.62;0.00;0.00;0.62;6.63;5.27;;;20.80;28.40;;;;;;2256501;62;20607;-62
2022/01/15 09:08:54;0.00;0.00;0.62;0.00;0.00;0.62;6.93;5.83;;;20.80;28.40;;;;;;2232844;62;20379;-62
2022/01/15 09:11:40;0.00;0.00;0.62;0.00;0.00;0.62;6.70;5.33;;;20.80;28.40;;;;;;2246346;59;20392;-64
2022/01/15 09:14:25;0.00;0.00;0.62;0.00;0.00;0.62;6.47;5.37;;;20.80;28.40;;;;;;2232949;62;20792;-63
2022/01/15 09:17:10;0.00;0.00;0.62;0.00;0.00;0.62;8.83;6.20;;;20.80;28.40;;;;;;2234380;58;20523;-63
2022/01/15 09:19:55;0.00;0.00;0.62;0.00;0.00;0.62;7.77;5.80;;;20.80;28.40;;;;;;2251619;62;20428;-63
2022/01/15 09:22:40;0.00;0.00;0.62;0.00;0.00;0.62;6.87;5.87;;;20.80;28.40;;;;;;2231578;62;20877;-63
2022/01/15 09:25:27;0.00;0.00;0.62;0.00;0.00;0.62;6.60;5.40;;;20.80;28.40;;;;;;2235759;62;20441;-62
2022/01/15 09:31:17;0.00;0.00;0.62;0.00;0.00;0.62;7.27;5.57;;;20.80;28.30;;;;;;2234006;62;20612;-62
2022/01/15 09:34:02;0.00;0.00;0.62;0.00;0.00;0.62;7.07;5.63;;;20.80;28.30;;;;;;2236626;58;20810;-61
2022/01/15 09:36:47;0.00;0.00;0.62;0.00;0.00;0.62;6.97;5.73;;;20.80;28.30;;;;;;2234171;62;20416;-62
2022/01/15 09:39:33;0.00;0.00;0.62;0.00;0.00;0.62;7.17;5.23;;;20.80;28.30;;;;;;2234020;62;20443;-62
2022/01/15 09:42:19;0.00;0.00;0.62;0.00;0.00;0.62;6.03;5.10;;;20.80;28.30;;;;;;2252807;62;20400;-61
2022/01/15 09:45:06;0.00;0.00;0.62;0.00;0.00;0.62;5.00;4.40;;;20.80;28.40;;;;;;2231140;62;20784;-61
2022/01/15 09:47:56;0.00;0.00;0.62;0.00;0.00;0.62;5.13;4.03;;;20.80;28.40;;;;;;2234530;62;20372;-62
2022/01/15 09:50:43;0.00;0.00;0.62;0.00;0.00;0.62;6.10;4.57;;;20.80;28.40;;;;;;2233265;62;20440;-62
2022/01/15 09:53:28;0.00;0.00;0.62;0.00;0.00;0.62;6.73;4.90;;;20.80;28.40;;;;;;2232293;62;20648;-65
2022/01/15 09:56:13;0.00;0.00;0.62;0.00;0.00;0.62;5.00;3.87;;;20.80;28.40;;;;;;2233138;62;20441;-64
2022/01/15 09:59:00;0.00;0.00;0.62;0.00;0.00;0.62;5.03;4.33;;;20.80;28.40;;;;;;2232060;62;20448;-62
2022/01/15 10:01:46;0.00;0.00;0.62;0.00;0.00;0.62;5.23;4.23;;;20.80;28.50;;;;;;2231388;62;20790;-62
2022/01/15 10:04:35;0.00;0.00;0.62;0.00;0.00;0.62;3.63;3.30;;;20.80;28.50;;;;;;2232478;62;20440;-62
2022/01/15 10:07:22;0.00;0.00;0.62;0.00;0.00;0.62;6.17;3.80;;;20.90;28.50;;;;;;2234805;59;20380;-62
2022/01/15 10:10:18;0.00;0.00;0.62;0.00;0.00;0.62;4.07;3.67;;;20.90;28.50;;;;;;2232047;62;20737;-62
2022/01/15 10:13:16;0.00;0.00;0.62;0.00;0.00;0.62;4.53;3.47;;;20.90;28.50;;;;;;2234329;62;20376;-60
2022/01/15 10:16:21;0.00;0.00;0.62;0.00;0.00;0.62;4.40;3.07;;;20.90;28.50;;;;;;2237604;62;20634;-62
2022/01/15 10:19:22;0.00;0.00;0.62;0.00;0.00;0.62;3.83;2.93;;;20.90;28.60;;;;;;2239920;62;20413;-62
2022/01/15 10:22:11;0.00;0.00;0.62;0.00;0.00;0.62;3.80;2.70;;;20.90;28.50;;;;;;2267540;59;20403;-60
2022/01/15 10:24:58;0.00;0.00;0.62;0.00;0.00;0.62;4.30;2.80;;;20.90;28.50;;;;;;2243825;59;20719;-62
2022/01/15 10:27:45;0.00;0.00;0.62;0.00;0.00;0.62;3.67;3.13;;;20.90;28.50;;;;;;2240872;59;20484;-62
2022/01/15 10:30:30;0.00;0.00;0.62;0.00;0.00;0.62;4.00;3.03;;;20.90;28.50;;;;;;2230893;59;20449;-62
2022/01/15 10:33:15;0.00;0.00;0.62;0.00;0.00;0.62;3.67;2.80;;;21.00;28.60;;;;;;2234687;59;20364;-62
2022/01/15 10:36:00;0.00;0.00;0.62;0.00;0.00;0.62;3.10;2.40;;;21.00;28.60;;;;;;2238232;58;20367;-62
2022/01/15 10:38:45;0.00;0.00;0.62;0.00;0.00;0.62;2.97;2.20;;;21.00;28.60;;;;;;2242567;58;20440;-61
2022/01/15 10:41:36;0.00;0.00;0.62;0.00;0.00;0.62;3.03;2.60;;;21.00;28.60;;;;;;2236753;62;20412;-61
2022/01/15 10:44:29;0.00;0.00;0.62;0.00;0.00;0.62;3.60;3.00;;;21.00;28.50;;;;;;2232728;58;20408;-63
2022/01/15 10:47:16;0.00;0.00;0.62;0.00;0.00;0.62;3.37;2.90;;;21.00;28.50;;;;;;2233893;58;20435;-62
2022/01/15 10:50:03;0.00;0.00;0.62;0.00;0.00;0.62;3.83;2.60;;;21.00;28.50;;;;;;2251982;59;20418;-61
2022/01/15 10:52:48;0.00;0.00;0.62;0.00;0.00;0.62;4.00;2.77;;;21.00;28.50;;;;;;2233220;58;20371;-63
2022/01/15 10:55:34;0.00;0.00;0.62;0.00;0.00;0.62;3.23;2.60;;;21.00;28.50;;;;;;2285256;58;20441;-63
2022/01/15 10:58:19;0.00;0.00;0.62;0.00;0.00;0.62;3.83;2.83;;;21.00;28.50;;;;;;2233016;62;20412;-62
2022/01/15 11:01:04;0.00;0.00;0.62;0.00;0.00;0.62;2.70;2.43;;;21.00;28.50;;;;;;2269004;59;20408;-62
2022/01/15 11:03:49;0.00;0.00;0.62;0.00;0.00;0.62;2.93;2.63;;;21.10;28.60;;;;;;2236528;59;20471;-62
2022/01/15 11:06:38;0.00;0.00;0.62;0.00;0.00;0.62;3.30;2.63;;;21.10;28.50;;;;;;2230244;62;20412;-61
2022/01/15 11:09:34;0.00;0.00;0.62;0.00;0.00;0.62;2.50;2.17;;;21.10;28.60;;;;;;2233331;59;20380;-62
2022/01/15 11:12:27;0.00;0.00;0.62;0.00;0.00;0.62;2.63;2.07;;;21.10;28.50;;;;;;2268690;59;20400;-62